Time;durP1;ratioP1;P1;durP2;ratioP2;P2;SDS_P1;SDS_P2;PMS_P1;PMS_P2;Temp;Humidity;BMP_temperature;BMP_pressure;BME280_temperature;BME280_humidity;BME280_pressure;Samples;Min_cycle;Max_cycle;Signal;HPM_P1;HPM_P2
2023/04/25 00:02:09;;;;;;;2.45;0.90;;;18.40;68.10;;;;;;5037546;27;45774;-72
2023/04/25 00:04:37;;;;;;;2.08;0.93;;;18.40;67.80;;;;;;5036523;27;45355;-72
2023/04/25 00:07:04;;;;;;;1.83;0.90;;;18.40;67.30;;;;;;5042561;28;45364;-71
2023/04/25 00:09:33;;;;;;;3.97;1.08;;;18.40;67.50;;;;;;5050558;28;46285;-72
2023/04/25 00:12:01;;;;;;;3.10;1.42;;;18.40;67.30;;;;;;5042147;28;45794;-72
2023/04/25 00:14:28;;;;;;;2.80;1.33;;;18.40;67.20;;;;;;5058768;28;45264;-72
2023/04/25 00:16:55;;;;;;;1.88;0.80;;;18.40;66.80;;;;;;5045655;27;45325;-72
2023/04/25 00:19:21;;;;;;;2.92;1.10;;;18.40;66.70;;;;;;5042360;28;46584;-72
2023/04/25 00:21:48;;;;;;;2.40;0.93;;;18.40;66.70;;;;;;5041864;28;45478;-72
2023/04/25 00:24:15;;;;;;;3.03;1.33;;;18.40;66.40;;;;;;5042236;28;45286;-72
2023/04/25 00:26:43;;;;;;;2.22;0.93;;;18.40;66.40;;;;;;5043099;28;45716;-72
2023/04/25 00:29:10;;;;;;;1.92;1.08;;;18.40;66.60;;;;;;5037182;28;48131;-72
2023/04/25 00:31:37;;;;;;;2.75;1.23;;;18.40;66.80;;;;;;5036819;28;45294;-72
2023/04/25 00:34:04;;;;;;;4.50;1.08;;;18.40;67.30;;;;;;5048733;27;45349;-72
2023/04/25 00:36:31;;;;;;;1.65;0.90;;;18.40;67.30;;;;;;5063775;27;45231;-72
2023/04/25 00:38:58;;;;;;;1.85;1.00;;;18.40;67.40;;;;;;5042594;27;46335;-72
2023/04/25 00:41:26;;;;;;;2.00;0.95;;;18.40;67.50;;;;;;5042197;28;45404;-72
2023/04/25 00:43:55;;;;;;;2.17;1.02;;;18.40;67.50;;;;;;5041567;27;45268;-72
2023/04/25 00:46:22;;;;;;;2.50;1.10;;;18.40;67.70;;;;;;5037142;28;45587;-72
2023/04/25 00:48:49;;;;;;;3.63;1.40;;;18.40;67.70;;;;;;5041083;28;46256;-72
2023/04/25 00:51:20;;;;;;;2.97;1.20;;;18.40;67.80;;;;;;5058605;27;45453;-72
2023/04/25 00:53:48;;;;;;;2.50;0.90;;;18.40;67.60;;;;;;5042555;27;45266;-72
2023/04/25 00:56:15;;;;;;;2.25;1.15;;;18.40;67.00;;;;;;5066180;27;45399;-72
2023/04/25 00:58:42;;;;;;;2.60;1.10;;;18.40;66.60;;;;;;5037025;28;45603;-72
2023/04/25 01:01:11;;;;;;;1.55;1.00;;;18.40;66.60;;;;;;5042440;28;45429;-72
2023/04/25 01:03:41;;;;;;;1.98;1.00;;;18.30;66.30;;;;;;5039391;28;45229;-72
2023/04/25 01:06:09;;;;;;;4.20;1.10;;;18.40;66.30;;;;;;5085851;27;45420;-72
2023/04/25 01:08:36;;;;;;;1.85;1.10;;;18.40;66.30;;;;;;5043060;28;46651;-72
2023/04/25 01:11:04;;;;;;;2.63;1.30;;;18.40;66.10;;;;;;5042118;28;45346;-72
2023/04/25 01:13:31;;;;;;;2.70;1.17;;;18.40;66.30;;;;;;5034256;28;45461;-72
2023/04/25 01:15:58;;;;;;;2.20;1.10;;;18.40;66.30;;;;;;5041995;28;45389;-71
2023/04/25 01:18:27;;;;;;;2.35;0.95;;;18.30;65.90;;;;;;5041802;28;47318;-71
2023/04/25 01:20:55;;;;;;;3.80;1.50;;;18.30;65.60;;;;;;5042153;28;45346;-72
2023/04/25 01:23:24;;;;;;;6.07;1.20;;;18.40;66.30;;;;;;5042044;28;45383;-72
2023/04/25 01:25:51;;;;;;;3.25;1.10;;;18.40;66.60;;;;;;5041563;28;45488;-72
2023/04/25 01:28:18;;;;;;;3.03;1.02;;;18.30;66.80;;;;;;5040302;28;48248;-72
2023/04/25 01:30:46;;;;;;;1.20;0.85;;;18.40;67.00;;;;;;5049832;28;45207;-72
2023/04/25 01:33:14;;;;;;;2.88;1.00;;;18.30;67.20;;;;;;5041911;28;45399;-71
2023/04/25 01:35:41;;;;;;;2.65;0.98;;;18.30;67.10;;;;;;5060917;27;45442;-72
2023/04/25 01:38:08;;;;;;;1.70;1.00;;;18.40;67.30;;;;;;5042524;27;45477;-71
2023/04/25 01:40:39;;;;;;;2.72;1.00;;;18.40;67.00;;;;;;5062039;27;45360;-72
2023/04/25 01:43:06;;;;;;;2.03;1.00;;;18.40;67.30;;;;;;5037023;28;45288;-72
2023/04/25 01:45:34;;;;;;;3.85;1.13;;;18.40;67.30;;;;;;5039438;28;45544;-72
2023/04/25 01:48:00;;;;;;;2.08;1.10;;;18.30;66.80;;;;;;5047774;27;47310;-72
2023/04/25 01:50:27;;;;;;;2.25;1.23;;;18.40;66.80;;;;;;5056662;27;45498;-71
2023/04/25 01:52:55;;;;;;;2.83;1.13;;;18.30;66.40;;;;;;5041989;27;45511;-72
2023/04/25 01:55:22;;;;;;;1.48;0.82;;;18.40;66.40;;;;;;5063908;27;45597;-72
2023/04/25 01:57:50;;;;;;;4.13;1.25;;;18.30;66.20;;;;;;5052109;27;46557;-72
2023/04/25 02:00:17;;;;;;;1.60;0.98;;;18.30;66.10;;;;;;5041605;28;45357;-72
2023/04/25 02:02:44;;;;;;;3.47;1.15;;;18.30;66.10;;;;;;5034574;28;45306;-72
2023/04/25 02:05:11;;;;;;;1.83;1.02;;;18.30;66.00;;;;;;5038301;28;45285;-73
2023/04/25 02:07:38;;;;;;;2.67;1.02;;;18.30;65.90;;;;;;5032270;28;46630;-72
2023/04/25 02:10:06;;;;;;;3.17;0.82;;;18.30;67.00;;;;;;5041487;28;45349;-72
2023/04/25 02:12:32;;;;;;;1.90;0.88;;;18.30;65.80;;;;;;5041024;28;45284;-72
2023/04/25 02:15:00;;;;;;;2.70;1.23;;;18.30;66.30;;;;;;5035049;28;45266;-72
2023/04/25 02:17:27;;;;;;;3.60;1.13;;;18.40;66.80;;;;;;5050135;27;46687;-72
2023/04/25 02:19:54;;;;;;;3.40;1.05;;;18.30;66.70;;;;;;5041451;28;45235;-72
2023/04/25 02:22:21;;;;;;;4.65;1.10;;;18.30;66.70;;;;;;5041774;28;45330;-72
2023/04/25 02:24:47;;;;;;;2.45;1.20;;;18.30;67.00;;;;;;5075529;27;45477;-72
2023/04/25 02:27:15;;;;;;;3.53;1.08;;;18.40;67.10;;;;;;5041417;28;45388;-72
2023/04/25 02:29:42;;;;;;;2.10;1.00;;;18.40;67.10;;;;;;5041779;28;45297;-72
2023/04/25 02:32:10;;;;;;;2.53;1.08;;;18.40;67.00;;;;;;5059174;27;45353;-72
2023/04/25 02:34:37;;;;;;;2.45;1.10;;;18.40;67.10;;;;;;5057646;27;45432;-72
2023/04/25 02:37:04;;;;;;;1.67;1.00;;;18.40;66.90;;;;;;5038439;28;46566;-72
2023/04/25 02:39:31;;;;;;;2.22;0.85;;;18.40;66.50;;;;;;5037330;28;45220;-72
2023/04/25 02:41:57;;;;;;;1.45;0.80;;;18.40;66.50;;;;;;5076123;27;45267;-72
2023/04/25 02:44:24;;;;;;;2.70;1.02;;;18.40;66.20;;;;;;5036796;28;45516;-72
2023/04/25 02:46:51;;;;;;;2.42;0.90;;;18.30;66.20;;;;;;5041048;28;47488;-72
2023/04/25 02:49:19;;;;;;;2.05;0.90;;;18.40;66.10;;;;;;5042573;28;45289;-73
2023/04/25 02:51:46;;;;;;;1.65;0.93;;;18.30;66.10;;;;;;5043245;27;45268;-72
2023/04/25 02:54:13;;;;;;;2.25;0.85;;;18.40;66.10;;;;;;5030200;28;45518;-72
2023/04/25 02:56:40;;;;;;;1.20;0.70;;;18.40;66.10;;;;;;5038397;28;47923;-72
2023/04/25 02:59:06;;;;;;;1.00;0.63;;;18.40;66.10;;;;;;5050500;27;45576;-72
2023/04/25 03:01:33;;;;;;;2.63;0.90;;;18.30;66.10;;;;;;5041448;28;45361;-72
2023/04/25 03:04:00;;;;;;;3.88;1.00;;;18.30;67.20;;;;;;5032969;28;45382;-71
2023/04/25 03:06:28;;;;;;;3.70;0.90;;;18.40;66.80;;;;;;5041266;28;46268;-72
2023/04/25 03:08:55;;;;;;;1.23;0.73;;;18.40;66.60;;;;;;5040409;28;45302;-72
2023/04/25 03:11:21;;;;;;;1.88;1.00;;;18.40;66.80;;;;;;5039140;28;45298;-72
2023/04/25 03:13:48;;;;;;;3.40;1.30;;;18.40;66.90;;;;;;5062065;27;45361;-72
2023/04/25 03:16:15;;;;;;;2.38;0.90;;;18.40;66.90;;;;;;5041560;28;46264;-72
2023/04/25 03:18:42;;;;;;;2.80;1.00;;;18.30;67.00;;;;;;5041853;28;45192;-72
2023/04/25 03:21:09;;;;;;;2.53;0.73;;;18.30;66.90;;;;;;5054488;27;45315;-72
2023/04/25 03:23:37;;;;;;;2.85;0.95;;;18.40;68.10;;;;;;5060605;27;45538;-72
2023/04/25 03:26:04;;;;;;;1.65;0.98;;;18.30;67.00;;;;;;5047981;27;45290;-72
2023/04/25 03:28:31;;;;;;;1.17;0.88;;;18.30;66.80;;;;;;5087533;27;45201;-72
2023/04/25 03:30:58;;;;;;;1.95;0.70;;;18.30;66.60;;;;;;5043958;28;45160;-72
2023/04/25 03:33:24;;;;;;;2.30;0.90;;;18.40;66.50;;;;;;5043482;27;45759;-72
2023/04/25 03:35:51;;;;;;;2.22;1.08;;;18.30;66.20;;;;;;5043621;28;47741;-72
2023/04/25 03:38:18;;;;;;;1.48;0.73;;;18.30;66.10;;;;;;5044020;28;46044;-72
2023/04/25 03:40:46;;;;;;;3.58;1.13;;;18.30;65.90;;;;;;5046531;28;45365;-72
2023/04/25 03:43:13;;;;;;;2.03;0.90;;;18.30;65.80;;;;;;5049758;28;45580;-72
2023/04/25 03:45:40;;;;;;;2.95;0.90;;;18.30;65.70;;;;;;5044343;28;45427;-72
2023/04/25 03:48:07;;;;;;;1.75;0.80;;;18.40;65.80;;;;;;5080259;27;45423;-72
2023/04/25 03:50:33;;;;;;;2.78;1.00;;;18.30;65.60;;;;;;5067451;27;45409;-72
2023/04/25 03:53:00;;;;;;;1.42;0.70;;;18.30;65.70;;;;;;5036161;28;45456;-72
2023/04/25 03:55:27;;;;;;;3.22;0.98;;;18.30;66.00;;;;;;5044064;28;45216;-72
2023/04/25 03:57:55;;;;;;;2.47;1.10;;;18.30;66.50;;;;;;5043970;28;46117;-72
2023/04/25 04:00:22;;;;;;;3.45;1.00;;;18.30;66.50;;;;;;5043948;28;45315;-72
2023/04/25 04:02:49;;;;;;;2.45;0.80;;;18.30;66.60;;;;;;5058175;27;45522;-72
2023/04/25 04:05:15;;;;;;;1.80;0.85;;;18.30;66.60;;;;;;5075899;27;47635;-72
2023/04/25 04:07:42;;;;;;;1.77;0.80;;;18.30;66.50;;;;;;5044069;28;45429;-72
2023/04/25 04:10:10;;;;;;;2.05;0.75;;;18.30;66.40;;;;;;5044006;28;45301;-72
2023/04/25 04:12:37;;;;;;;1.77;0.80;;;18.30;66.70;;;;;;5044043;28;45279;-73
2023/04/25 04:15:06;;;;;;;3.20;0.90;;;18.30;66.80;;;;;;5043610;28;48441;-72
2023/04/25 04:17:34;;;;;;;2.55;0.85;;;18.30;66.40;;;;;;5043689;28;45447;-72
2023/04/25 04:20:01;;;;;;;1.85;0.88;;;18.30;66.30;;;;;;5043995;28;45304;-72
2023/04/25 04:22:27;;;;;;;3.25;1.17;;;18.30;66.20;;;;;;5044033;28;45212;-72
2023/04/25 04:24:54;;;;;;;1.23;0.75;;;18.30;65.80;;;;;;5043431;28;46998;-72
2023/04/25 04:27:23;;;;;;;2.15;0.88;;;18.30;65.70;;;;;;5043990;28;45953;-72
2023/04/25 04:29:52;;;;;;;1.27;0.93;;;18.30;65.40;;;;;;5043608;28;45379;-72
2023/04/25 04:32:20;;;;;;;2.40;0.68;;;18.30;65.50;;;;;;5045679;28;45456;-72
2023/04/25 04:34:48;;;;;;;3.55;1.05;;;18.30;65.20;;;;;;5043950;28;46787;-72
2023/04/25 04:37:15;;;;;;;3.35;0.88;;;18.30;65.30;;;;;;5043669;28;45351;-72
2023/04/25 04:39:42;;;;;;;3.10;1.17;;;18.30;65.10;;;;;;5043145;28;45254;-72
2023/04/25 04:42:08;;;;;;;2.00;0.77;;;18.30;65.10;;;;;;5043217;28;45485;-72
2023/04/25 04:44:36;;;;;;;3.47;1.02;;;18.30;65.00;;;;;;5043148;28;47227;-72
2023/04/25 04:47:05;;;;;;;1.73;1.00;;;18.30;65.60;;;;;;5042901;28;45259;-72
2023/04/25 04:49:34;;;;;;;1.85;0.85;;;18.30;65.90;;;;;;5097693;27;45385;-72
2023/04/25 04:52:00;;;;;;;1.55;0.93;;;18.30;66.20;;;;;;5040839;28;45271;-73
2023/04/25 04:54:27;;;;;;;2.50;1.17;;;18.30;65.90;;;;;;5036952;28;47327;-72
2023/04/25 04:56:54;;;;;;;2.00;0.90;;;18.30;66.20;;;;;;5042891;28;45360;-72
2023/04/25 04:59:21;;;;;;;1.98;0.90;;;18.30;66.10;;;;;;5043428;28;45468;-72
2023/04/25 05:01:48;;;;;;;2.13;0.85;;;18.30;66.40;;;;;;5070574;27;45466;-72
2023/04/25 05:04:15;;;;;;;2.38;0.80;;;18.30;66.30;;;;;;5040848;27;46587;-72
2023/04/25 05:06:44;;;;;;;2.75;0.93;;;18.30;66.30;;;;;;5060278;27;45387;-72
2023/04/25 05:09:10;;;;;;;4.43;1.35;;;18.30;65.70;;;;;;5043938;27;45438;-72
2023/04/25 05:11:37;;;;;;;2.22;1.10;;;18.30;64.60;;;;;;5040574;27;45455;-72
2023/04/25 05:14:04;;;;;;;1.85;0.90;;;18.30;64.40;;;;;;5061725;27;46601;-72
2023/04/25 05:16:31;;;;;;;2.33;0.98;;;18.30;64.60;;;;;;5082654;27;45419;-72
2023/04/25 05:18:58;;;;;;;2.80;1.05;;;18.30;64.60;;;;;;5036029;27;45325;-73
2023/04/25 05:21:25;;;;;;;2.58;0.95;;;18.30;64.10;;;;;;5036740;27;45441;-72
2023/04/25 05:23:53;;;;;;;3.17;1.35;;;18.30;63.60;;;;;;5045517;27;45347;-73
2023/04/25 05:26:20;;;;;;;3.90;1.30;;;18.20;63.00;;;;;;5084545;27;46068;-73
2023/04/25 05:28:47;;;;;;;2.00;0.90;;;18.20;62.90;;;;;;5044200;27;45411;-73
2023/04/25 05:31:13;;;;;;;3.42;1.35;;;18.20;62.30;;;;;;5042048;27;45389;-73
2023/04/25 05:33:40;;;;;;;3.13;1.20;;;18.20;62.10;;;;;;5053343;27;47794;-72
2023/04/25 05:36:08;;;;;;;2.83;1.10;;;18.20;62.60;;;;;;5040980;27;45427;-72
2023/04/25 05:38:35;;;;;;;3.38;1.10;;;18.20;63.00;;;;;;5052536;27;45501;-72
2023/04/25 05:41:04;;;;;;;4.72;1.27;;;18.10;63.00;;;;;;5066827;27;45239;-72
2023/04/25 05:43:31;;;;;;;6.60;1.40;;;18.10;62.70;;;;;;5035946;27;47266;-73
2023/04/25 05:45:57;;;;;;;5.15;1.20;;;18.10;62.80;;;;;;5078615;27;45416;-73
2023/04/25 05:48:24;;;;;;;4.78;1.65;;;18.10;62.70;;;;;;5065698;27;45342;-72
2023/04/25 05:50:52;;;;;;;3.72;1.20;;;18.10;62.40;;;;;;5059556;27;45317;-72
2023/04/25 05:53:19;;;;;;;3.10;1.27;;;18.10;62.50;;;;;;5040754;28;46204;-72
2023/04/25 05:55:46;;;;;;;3.35;1.10;;;18.20;62.60;;;;;;5041778;27;45573;-73
2023/04/25 05:58:14;;;;;;;7.13;1.48;;;18.20;62.30;;;;;;5040304;27;45422;-72
2023/04/25 06:00:41;;;;;;;5.55;1.33;;;18.20;62.10;;;;;;5057798;27;45479;-72
2023/04/25 06:03:09;;;;;;;3.90;1.08;;;18.20;62.10;;;;;;5044527;27;45250;-72
2023/04/25 06:05:36;;;;;;;3.70;1.15;;;18.20;62.50;;;;;;5049456;27;45204;-72
2023/04/25 06:08:03;;;;;;;3.90;1.20;;;18.20;62.50;;;;;;5047428;27;45400;-73
2023/04/25 06:10:29;;;;;;;4.90;1.27;;;18.20;62.50;;;;;;5079896;27;45368;-72
2023/04/25 06:12:56;;;;;;;3.33;1.20;;;18.20;62.50;;;;;;5043014;27;46513;-72
2023/04/25 06:15:24;;;;;;;4.32;1.40;;;18.20;62.70;;;;;;5037171;28;45602;-72
2023/04/25 06:17:51;;;;;;;3.03;1.42;;;18.20;62.80;;;;;;5047575;27;45316;-72
2023/04/25 06:20:19;;;;;;;2.38;1.17;;;18.20;62.80;;;;;;5059472;27;45420;-72
2023/04/25 06:22:46;;;;;;;3.05;1.05;;;18.20;62.80;;;;;;5049792;27;46261;-73
2023/04/25 06:25:13;;;;;;;2.28;1.10;;;18.20;62.90;;;;;;5039738;27;45508;-72
2023/04/25 06:27:39;;;;;;;2.30;0.93;;;18.20;63.30;;;;;;5038803;28;45264;-72
2023/04/25 06:30:07;;;;;;;3.30;1.15;;;18.30;63.60;;;;;;5037994;28;45540;-72
2023/04/25 06:32:36;;;;;;;3.85;0.90;;;18.30;63.60;;;;;;5034279;28;46504;-72
2023/04/25 06:35:03;;;;;;;6.75;1.40;;;18.30;63.80;;;;;;5079452;27;45503;-72
2023/04/25 06:37:30;;;;;;;3.00;1.08;;;18.30;63.70;;;;;;5040239;28;45263;-72
2023/04/25 06:39:56;;;;;;;2.10;0.90;;;18.30;63.70;;;;;;5049385;27;45379;-71
2023/04/25 06:42:23;;;;;;;2.53;1.17;;;18.30;63.90;;;;;;5040977;28;47047;-72
2023/04/25 06:44:50;;;;;;;6.07;1.85;;;18.30;63.90;;;;;;5038215;28;45298;-72
2023/04/25 06:47:17;;;;;;;3.55;1.20;;;18.30;64.00;;;;;;5040731;28;45315;-72
2023/04/25 06:49:45;;;;;;;3.00;1.27;;;18.30;63.80;;;;;;5040735;28;45381;-72
2023/04/25 06:52:11;;;;;;;2.30;1.08;;;18.30;63.60;;;;;;5039667;28;48447;-72
2023/04/25 06:54:38;;;;;;;4.20;1.17;;;18.30;63.50;;;;;;5040039;28;45388;-72
2023/04/25 06:57:05;;;;;;;2.42;1.20;;;18.30;63.30;;;;;;5040968;28;45342;-71
2023/04/25 06:59:32;;;;;;;4.03;1.13;;;18.30;63.00;;;;;;5065962;27;45427;-72
2023/04/25 07:01:59;;;;;;;3.28;0.95;;;18.30;63.20;;;;;;5051333;27;48087;-72
2023/04/25 07:04:26;;;;;;;5.15;1.27;;;18.30;63.10;;;;;;5039965;28;45179;-72
2023/04/25 07:06:54;;;;;;;4.10;1.10;;;18.30;63.10;;;;;;5074415;27;45568;-72
2023/04/25 07:09:21;;;;;;;4.05;0.93;;;18.30;63.90;;;;;;5040700;28;45379;-72
2023/04/25 07:11:48;;;;;;;2.42;1.00;;;18.30;62.80;;;;;;5100852;27;46415;-72
2023/04/25 07:14:15;;;;;;;4.55;1.10;;;18.30;62.60;;;;;;5071756;27;45453;-72
2023/04/25 07:16:41;;;;;;;2.58;1.08;;;18.30;62.90;;;;;;5037713;28;45345;-72
2023/04/25 07:19:08;;;;;;;4.10;1.20;;;18.30;63.30;;;;;;5040732;28;45640;-72
2023/04/25 07:21:36;;;;;;;2.78;0.90;;;18.30;63.50;;;;;;5039632;28;48258;-72
2023/04/25 07:24:04;;;;;;;3.92;0.90;;;18.30;63.60;;;;;;5033763;28;45346;-71
2023/04/25 07:26:31;;;;;;;3.22;1.08;;;18.30;63.60;;;;;;5082165;27;45410;-72
2023/04/25 07:28:58;;;;;;;3.15;1.00;;;18.30;63.60;;;;;;5042296;27;45354;-72
2023/04/25 07:31:25;;;;;;;2.50;0.93;;;18.30;63.60;;;;;;5061354;27;46258;-72
2023/04/25 07:33:52;;;;;;;2.47;1.00;;;18.30;63.70;;;;;;5045483;27;45280;-72
2023/04/25 07:36:19;;;;;;;3.30;0.90;;;18.30;63.60;;;;;;5036550;28;45258;-72
2023/04/25 07:38:45;;;;;;;2.67;0.77;;;18.30;63.50;;;;;;5038377;28;45203;-71
2023/04/25 07:41:14;;;;;;;2.67;1.17;;;18.30;63.30;;;;;;5042523;27;46982;-72
2023/04/25 07:43:40;;;;;;;2.55;0.88;;;18.30;63.10;;;;;;5037985;28;45874;-72
2023/04/25 07:46:07;;;;;;;2.38;0.93;;;18.30;63.10;;;;;;5031882;28;45324;-72
2023/04/25 07:48:34;;;;;;;4.40;0.90;;;18.30;62.90;;;;;;5031688;27;45233;-71
2023/04/25 07:51:01;;;;;;;3.10;1.00;;;18.30;62.90;;;;;;5034661;28;47236;-72
2023/04/25 07:53:27;;;;;;;3.03;1.00;;;18.30;62.90;;;;;;5053534;27;45342;-72
2023/04/25 07:55:54;;;;;;;3.38;0.90;;;18.30;63.00;;;;;;5037224;28;45357;-72
2023/04/25 07:58:22;;;;;;;3.70;1.05;;;18.30;62.80;;;;;;5037016;28;45633;-72
2023/04/25 08:00:49;;;;;;;3.03;0.90;;;18.30;62.90;;;;;;5046643;27;45291;-71
2023/04/25 08:03:16;;;;;;;2.85;1.08;;;18.30;62.70;;;;;;5071912;27;45438;-72
2023/04/25 08:05:43;;;;;;;3.85;0.90;;;18.30;62.60;;;;;;5039693;27;45364;-72
2023/04/25 08:08:10;;;;;;;4.53;1.02;;;18.30;63.10;;;;;;5027997;28;45417;-72
2023/04/25 08:10:37;;;;;;;4.43;1.00;;;18.30;63.30;;;;;;5041593;27;46679;-72
2023/04/25 08:13:03;;;;;;;2.63;0.90;;;18.30;63.40;;;;;;5071573;27;45308;-72
2023/04/25 08:15:32;;;;;;;3.10;1.10;;;18.30;63.60;;;;;;5091987;27;45235;-72
2023/04/25 08:17:59;;;;;;;4.28;1.27;;;18.40;63.60;;;;;;5044141;27;45388;-72
2023/04/25 08:20:26;;;;;;;3.63;0.80;;;18.30;63.40;;;;;;5061025;27;45788;-71
2023/04/25 08:22:52;;;;;;;5.15;0.88;;;18.30;63.50;;;;;;5041951;28;45715;-72
2023/04/25 08:25:19;;;;;;;3.67;0.68;;;18.30;63.40;;;;;;5046122;27;45369;-71
2023/04/25 08:27:46;;;;;;;3.30;1.08;;;18.30;63.50;;;;;;5043196;28;45482;-71
2023/04/25 08:30:14;;;;;;;2.17;0.80;;;18.30;63.30;;;;;;5042981;28;47069;-72
2023/04/25 08:32:42;;;;;;;2.30;1.00;;;18.30;63.30;;;;;;5042663;28;45306;-72
2023/04/25 08:35:09;;;;;;;2.95;1.10;;;18.30;63.00;;;;;;5042697;28;45314;-72
2023/04/25 08:37:36;;;;;;;3.10;0.77;;;18.30;62.70;;;;;;5042984;28;45414;-72
2023/04/25 08:40:06;;;;;;;2.65;0.98;;;18.30;62.40;;;;;;5042501;28;46331;-72
2023/04/25 08:42:34;;;;;;;6.13;1.23;;;18.30;62.10;;;;;;5042759;28;46135;-72
2023/04/25 08:45:03;;;;;;;2.20;0.85;;;18.30;62.30;;;;;;5034846;28;45287;-72
2023/04/25 08:47:32;;;;;;;3.97;0.95;;;18.30;62.10;;;;;;5047311;28;45613;-72
2023/04/25 08:50:01;;;;;;;3.35;1.00;;;18.30;61.90;;;;;;5042381;28;47363;-71
2023/04/25 08:52:33;;;;;;;2.83;0.85;;;18.30;61.90;;;;;;5052777;28;45309;-72
2023/04/25 08:55:02;;;;;;;2.38;0.63;;;18.30;61.70;;;;;;5043497;28;45283;-72
2023/04/25 08:57:30;;;;;;;3.25;0.82;;;18.30;61.90;;;;;;5043106;28;45238;-72
2023/04/25 08:59:58;;;;;;;3.35;1.00;;;18.30;62.40;;;;;;5044283;28;47315;-72
2023/04/25 09:02:25;;;;;;;3.22;0.90;;;18.30;62.40;;;;;;5056251;28;45197;-72
2023/04/25 09:04:54;;;;;;;1.73;0.70;;;18.30;62.60;;;;;;5043810;27;45367;-72
2023/04/25 09:07:22;;;;;;;2.80;1.00;;;18.30;62.70;;;;;;5029730;28;45370;-72
2023/04/25 09:09:49;;;;;;;2.75;0.70;;;18.30;62.70;;;;;;5041497;28;47100;-71
2023/04/25 09:12:16;;;;;;;3.70;0.80;;;18.30;62.50;;;;;;5041416;28;45605;-71
2023/04/25 09:14:43;;;;;;;2.50;0.75;;;18.30;62.50;;;;;;5041942;28;45155;-72
2023/04/25 09:17:10;;;;;;;3.33;0.90;;;18.30;62.50;;;;;;5042664;28;45495;-72
2023/04/25 09:19:39;;;;;;;2.05;0.90;;;18.30;62.20;;;;;;5041599;28;46555;-72
2023/04/25 09:22:06;;;;;;;3.00;0.75;;;18.30;62.10;;;;;;5045496;27;45407;-72
2023/04/25 09:24:37;;;;;;;1.88;0.85;;;18.30;62.10;;;;;;5061765;27;45335;-72
2023/04/25 09:27:07;;;;;;;1.35;0.82;;;18.30;62.20;;;;;;5034693;28;45393;-72
2023/04/25 09:29:37;;;;;;;2.63;0.90;;;18.30;61.70;;;;;;5042564;28;47804;-72
2023/04/25 09:32:19;;;;;;;4.35;0.90;;;18.30;61.50;;;;;;5051051;27;45850;-72
2023/04/25 09:34:49;;;;;;;2.00;0.90;;;18.30;61.50;;;;;;5038012;28;45414;-72
2023/04/25 09:37:20;;;;;;;2.47;0.68;;;18.30;61.90;;;;;;5063582;27;45427;-72
2023/04/25 09:39:49;;;;;;;3.47;0.80;;;18.30;62.10;;;;;;5040321;28;45443;-72
2023/04/25 09:42:16;;;;;;;2.17;0.90;;;18.30;61.90;;;;;;5040534;28;45205;-72
2023/04/25 09:44:45;;;;;;;3.35;0.65;;;18.30;61.40;;;;;;5032214;27;45400;-72
2023/04/25 09:47:12;;;;;;;4.07;0.80;;;18.30;61.20;;;;;;5063753;27;45379;-72
2023/04/25 09:49:41;;;;;;;2.85;0.80;;;18.30;61.90;;;;;;5048312;28;47168;-72
2023/04/25 09:52:09;;;;;;;3.35;0.90;;;18.30;62.20;;;;;;5041353;28;46072;-72
2023/04/25 09:54:35;;;;;;;1.75;0.60;;;18.30;62.20;;;;;;5101535;27;45496;-72
2023/04/25 09:57:11;;;;;;;2.08;1.00;;;18.30;62.50;;;;;;5034229;28;45533;-72
2023/04/25 09:59:40;;;;;;;1.77;0.82;;;18.30;62.40;;;;;;5041426;27;47287;-71
2023/04/25 10:02:09;;;;;;;3.13;0.73;;;18.30;62.40;;;;;;5037706;28;45437;-72
2023/04/25 10:04:36;;;;;;;2.00;1.00;;;18.30;62.20;;;;;;5047096;27;45460;-72
2023/04/25 10:07:06;;;;;;;3.13;0.88;;;18.30;62.00;;;;;;5041330;28;45433;-72
2023/04/25 10:09:34;;;;;;;1.27;0.70;;;18.30;62.40;;;;;;5064337;27;46629;-72
2023/04/25 10:12:03;;;;;;;2.78;0.80;;;18.30;61.70;;;;;;5060952;27;45323;-72
2023/04/25 10:14:31;;;;;;;2.85;0.82;;;18.30;62.00;;;;;;5033848;28;45409;-72
2023/04/25 10:16:59;;;;;;;2.40;0.65;;;18.30;61.90;;;;;;5039944;28;45242;-72
2023/04/25 10:19:27;;;;;;;3.00;0.85;;;18.30;61.80;;;;;;5082109;27;48440;-72
2023/04/25 10:21:59;;;;;;;4.32;0.77;;;18.30;61.50;;;;;;5041011;28;45380;-72
2023/04/25 10:24:26;;;;;;;2.15;0.75;;;18.30;61.40;;;;;;5039995;27;45381;-72
2023/04/25 10:26:53;;;;;;;4.40;0.70;;;18.30;61.30;;;;;;5048045;27;45236;-72
2023/04/25 10:29:23;;;;;;;1.77;0.70;;;18.30;61.10;;;;;;5068557;27;46657;-72
2023/04/25 10:31:52;;;;;;;1.42;0.60;;;18.30;61.00;;;;;;5038241;28;45337;-72
2023/04/25 10:34:19;;;;;;;2.80;0.63;;;18.30;60.90;;;;;;5045340;27;45323;-72
2023/04/25 10:36:51;;;;;;;0.93;0.40;;;18.30;60.70;;;;;;5040878;28;45711;-73
2023/04/25 10:39:23;;;;;;;2.72;0.65;;;18.30;60.60;;;;;;5046866;28;48588;-72
2023/04/25 10:41:56;;;;;;;1.80;0.70;;;18.30;61.30;;;;;;5050440;28;45285;-72
2023/04/25 10:44:22;;;;;;;1.80;0.80;;;18.30;61.50;;;;;;5041010;28;45498;-72
2023/04/25 10:46:51;;;;;;;2.45;0.90;;;18.30;61.50;;;;;;5040917;28;45502;-72
2023/04/25 10:49:33;;;;;;;2.30;0.73;;;18.30;61.50;;;;;;5046676;28;48114;-72
2023/04/25 10:52:13;;;;;;;2.17;0.60;;;18.30;61.30;;;;;;5038830;28;45238;-72
2023/04/25 10:54:44;;;;;;;1.58;0.70;;;18.30;61.40;;;;;;5041094;28;45268;-72
2023/04/25 10:57:27;;;;;;;1.05;0.60;;;18.30;62.30;;;;;;5042818;27;45232;-72
2023/04/25 10:59:54;;;;;;;2.30;0.70;;;18.30;61.20;;;;;;5040229;28;46755;-72
2023/04/25 11:02:26;;;;;;;1.15;0.60;;;18.30;60.90;;;;;;5040584;28;45381;-72
2023/04/25 11:04:54;;;;;;;4.40;0.57;;;18.30;60.70;;;;;;5032648;27;45331;-72
2023/04/25 11:07:29;;;;;;;3.13;1.08;;;18.30;60.70;;;;;;5038381;28;45344;-72
2023/04/25 11:09:56;;;;;;;1.98;0.80;;;18.30;60.50;;;;;;5028393;28;45359;-71
2023/04/25 11:12:26;;;;;;;2.55;0.60;;;18.30;60.70;;;;;;5037683;28;45298;-72
2023/04/25 11:15:00;;;;;;;2.47;0.80;;;18.30;60.30;;;;;;5056485;27;45565;-72
2023/04/25 11:17:29;;;;;;;2.58;0.70;;;18.30;60.70;;;;;;5058326;27;45335;-72
2023/04/25 11:19:56;;;;;;;1.75;0.55;;;18.30;60.50;;;;;;5059504;27;46538;-72
2023/04/25 11:22:24;;;;;;;1.20;0.52;;;18.30;60.10;;;;;;5039775;28;45450;-71
2023/04/25 11:24:51;;;;;;;1.23;0.50;;;18.30;60.00;;;;;;5040491;27;45319;-72
2023/04/25 11:27:18;;;;;;;1.75;0.70;;;18.30;59.70;;;;;;5039925;28;45488;-72
2023/04/25 11:29:46;;;;;;;2.03;0.70;;;18.20;59.60;;;;;;5043514;27;48674;-72
2023/04/25 11:32:13;;;;;;;1.90;0.80;;;18.20;60.50;;;;;;5035637;28;45310;-72
2023/04/25 11:34:44;;;;;;;2.50;0.60;;;18.30;60.80;;;;;;5041766;27;45450;-72
2023/04/25 11:37:12;;;;;;;1.85;0.73;;;18.30;60.50;;;;;;5037253;27;45592;-72
2023/04/25 11:39:39;;;;;;;1.25;0.40;;;18.30;60.40;;;;;;5035894;28;47547;-72
2023/04/25 11:42:06;;;;;;;1.40;0.43;;;18.30;60.30;;;;;;5043724;27;45286;-72
2023/04/25 11:44:33;;;;;;;1.48;0.50;;;18.30;60.60;;;;;;5040141;27;45363;-72
2023/04/25 11:47:00;;;;;;;1.50;0.63;;;18.30;60.60;;;;;;5038796;28;45447;-72
2023/04/25 11:49:31;;;;;;;1.85;0.52;;;18.30;60.50;;;;;;5057472;27;48015;-72
2023/04/25 11:51:59;;;;;;;3.35;0.90;;;18.30;60.30;;;;;;5070093;27;45227;-74
2023/04/25 11:54:26;;;;;;;1.25;0.52;;;18.30;60.00;;;;;;5049977;27;45251;-72
2023/04/25 11:56:53;;;;;;;2.20;0.65;;;18.30;60.20;;;;;;5041904;27;45411;-72
2023/04/25 11:59:25;;;;;;;2.03;0.50;;;18.30;60.30;;;;;;5061106;27;47516;-72
2023/04/25 12:01:51;;;;;;;1.95;0.60;;;18.30;59.50;;;;;;5043608;27;45540;-72
2023/04/25 12:04:20;;;;;;;1.58;0.63;;;18.30;59.70;;;;;;5043370;28;45510;-72
2023/04/25 12:06:48;;;;;;;1.25;0.63;;;18.30;59.50;;;;;;5049992;27;45400;-72
2023/04/25 12:09:18;;;;;;;2.00;0.70;;;18.20;59.30;;;;;;5030732;27;47557;-71
2023/04/25 12:11:47;;;;;;;1.38;0.57;;;18.30;59.20;;;;;;5042584;28;45662;-72
2023/04/25 12:14:23;;;;;;;2.20;0.50;;;18.30;58.90;;;;;;5106594;27;45342;-72
2023/04/25 12:16:51;;;;;;;2.42;0.70;;;18.30;58.80;;;;;;5042752;28;45429;-72
2023/04/25 12:19:19;;;;;;;2.40;0.40;;;18.30;59.10;;;;;;5036813;28;47634;-72
2023/04/25 12:21:46;;;;;;;3.50;0.50;;;18.30;59.50;;;;;;5061458;27;45306;-72
2023/04/25 12:24:16;;;;;;;1.42;0.57;;;18.30;59.80;;;;;;5039267;28;45441;-72
2023/04/25 12:26:51;;;;;;;2.22;0.80;;;18.30;59.70;;;;;;5032345;28;45278;-72
2023/04/25 12:29:20;;;;;;;1.10;0.63;;;18.30;59.90;;;;;;5042628;28;47910;-72
2023/04/25 12:31:47;;;;;;;1.85;0.70;;;18.30;60.00;;;;;;5042781;28;45833;-72
2023/04/25 12:34:14;;;;;;;2.70;0.68;;;18.30;59.60;;;;;;5042327;28;45310;-72
2023/04/25 12:36:41;;;;;;;2.08;0.50;;;18.30;59.90;;;;;;5042822;28;45521;-72
2023/04/25 12:39:08;;;;;;;1.83;0.55;;;18.30;59.90;;;;;;5055052;27;48084;-72
2023/04/25 12:41:37;;;;;;;1.77;0.60;;;18.30;59.90;;;;;;5057949;27;45295;-72
2023/04/25 12:44:04;;;;;;;1.67;0.52;;;18.30;59.70;;;;;;5034826;28;45205;-72
2023/04/25 12:46:31;;;;;;;1.75;0.55;;;18.30;59.60;;;;;;5040902;28;45392;-72
2023/04/25 12:48:58;;;;;;;6.05;0.90;;;18.30;59.60;;;;;;5040250;28;45608;-70
2023/04/25 12:51:25;;;;;;;3.85;0.65;;;18.30;60.00;;;;;;5023991;28;45161;-78